sensor_id;sensor_type;location;lat;lon;timestamp;pressure;altitude;pressure_sealevel;temperature;humidity
48077;BME280;33854;57.708;12.008;2023-04-24T00:00:14;99535.13;;;8.13;100.00
48077;BME280;33854;57.708;12.008;2023-04-24T00:02:40;99530.69;;;8.15;100.00
48077;BME280;33854;57.708;12.008;2023-04-24T00:05:06;99521.97;;;8.16;100.00
48077;BME280;33854;57.708;12.008;2023-04-24T00:07:31;99531.19;;;8.21;100.00
48077;BME280;33854;57.708;12.008;2023-04-24T00:09:57;99529.53;;;8.20;100.00
48077;BME280;33854;57.708;12.008;2023-04-24T00:12:22;99533.72;;;8.23;100.00
48077;BME280;33854;57.708;12.008;2023-04-24T00:14:48;99537.06;;;8.25;100.00
48077;BME280;33854;57.708;12.008;2023-04-24T00:17:13;99537.16;;;8.23;100.00
48077;BME280;33854;57.708;12.008;2023-04-24T00:19:38;99545.97;;;8.21;100.00
48077;BME280;33854;57.708;12.008;2023-04-24T00:22:04;99544.28;;;8.20;100.00
48077;BME280;33854;57.708;12.008;2023-04-24T00:24:30;99540.84;;;8.19;100.00
48077;BME280;33854;57.708;12.008;2023-04-24T00:26:55;99547.03;;;8.17;100.00
48077;BME280;33854;57.708;12.008;2023-04-24T00:29:21;99545.44;;;8.14;100.00
48077;BME280;33854;57.708;12.008;2023-04-24T00:31:47;99552.66;;;8.09;100.00
48077;BME280;33854;57.708;12.008;2023-04-24T00:34:12;99553.47;;;8.10;100.00
48077;BME280;33854;57.708;12.008;2023-04-24T00:36:38;99545.78;;;8.08;100.00
48077;BME280;33854;57.708;12.008;2023-04-24T00:39:03;99547.81;;;8.03;100.00
48077;BME280;33854;57.708;12.008;2023-04-24T00:41:29;99546.22;;;8.00;100.00
48077;BME280;33854;57.708;12.008;2023-04-24T00:43:54;99541.94;;;7.99;100.00
48077;BME280;33854;57.708;12.008;2023-04-24T00:46:20;99540.22;;;7.98;100.00
48077;BME280;33854;57.708;12.008;2023-04-24T00:48:46;99545.59;;;7.95;100.00
48077;BME280;33854;57.708;12.008;2023-04-24T00:51:11;99547.53;;;7.92;100.00
48077;BME280;33854;57.708;12.008;2023-04-24T00:53:37;99549.31;;;7.91;100.00
48077;BME280;33854;57.708;12.008;2023-04-24T00:56:02;99543.25;;;7.91;100.00
48077;BME280;33854;57.708;12.008;2023-04-24T00:58:27;99541.66;;;7.88;100.00
48077;BME280;33854;57.708;12.008;2023-04-24T01:00:53;99547.78;;;7.87;100.00
48077;BME280;33854;57.708;12.008;2023-04-24T01:03:22;99537.38;;;7.87;100.00
48077;BME280;33854;57.708;12.008;2023-04-24T01:05:49;99540.66;;;7.91;100.00
48077;BME280;33854;57.708;12.008;2023-04-24T01:08:15;99533.63;;;7.93;100.00
48077;BME280;33854;57.708;12.008;2023-04-24T01:10:41;99531.97;;;7.92;100.00
48077;BME280;33854;57.708;12.008;2023-04-24T01:13:09;99534.72;;;7.89;100.00
48077;BME280;33854;57.708;12.008;2023-04-24T01:15:35;99530.34;;;7.89;100.00
48077;BME280;33854;57.708;12.008;2023-04-24T01:18:00;99530.16;;;7.92;100.00
48077;BME280;33854;57.708;12.008;2023-04-24T01:20:26;99531.19;;;7.90;100.00
48077;BME280;33854;57.708;12.008;2023-04-24T01:22:52;99530.94;;;7.94;100.00
48077;BME280;33854;57.708;12.008;2023-04-24T01:25:18;99531.84;;;7.93;100.00
48077;BME280;33854;57.708;12.008;2023-04-24T01:27:43;99532.72;;;7.94;100.00
48077;BME280;33854;57.708;12.008;2023-04-24T01:30:09;99530.34;;;7.89;100.00
48077;BME280;33854;57.708;12.008;2023-04-24T01:32:34;99524.81;;;7.95;100.00
48077;BME280;33854;57.708;12.008;2023-04-24T01:35:00;99530.84;;;7.96;100.00
48077;BME280;33854;57.708;12.008;2023-04-24T01:37:26;99520.72;;;7.91;100.00
48077;BME280;33854;57.708;12.008;2023-04-24T01:39:51;99516.28;;;7.93;100.00
48077;BME280;33854;57.708;12.008;2023-04-24T01:42:17;99514.41;;;7.95;100.00
48077;BME280;33854;57.708;12.008;2023-04-24T01:44:42;99509.38;;;7.92;100.00
48077;BME280;33854;57.708;12.008;2023-04-24T01:47:07;99509.56;;;7.89;100.00
48077;BME280;33854;57.708;12.008;2023-04-24T01:49:33;99508.75;;;7.89;100.00
48077;BME280;33854;57.708;12.008;2023-04-24T01:51:58;99508.75;;;7.89;100.00
48077;BME280;33854;57.708;12.008;2023-04-24T01:54:23;99500.19;;;7.87;100.00
48077;BME280;33854;57.708;12.008;2023-04-24T01:56:49;99495.06;;;7.85;100.00
48077;BME280;33854;57.708;12.008;2023-04-24T01:59:14;99489.31;;;7.80;100.00
48077;BME280;33854;57.708;12.008;2023-04-24T02:01:40;99486.72;;;7.80;100.00
48077;BME280;33854;57.708;12.008;2023-04-24T02:04:06;99484.16;;;7.79;100.00
48077;BME280;33854;57.708;12.008;2023-04-24T02:06:32;99483.50;;;7.75;100.00
48077;BME280;33854;57.708;12.008;2023-04-24T02:08:58;99493.06;;;7.75;100.00
48077;BME280;33854;57.708;12.008;2023-04-24T02:11:23;99494.81;;;7.74;100.00
48077;BME280;33854;57.708;12.008;2023-04-24T02:13:49;99486.25;;;7.72;100.00
48077;BME280;33854;57.708;12.008;2023-04-24T02:16:15;99492.28;;;7.73;100.00
48077;BME280;33854;57.708;12.008;2023-04-24T02:18:40;99474.13;;;7.73;100.00
48077;BME280;33854;57.708;12.008;2023-04-24T02:21:06;99471.34;;;7.76;100.00
48077;BME280;33854;57.708;12.008;2023-04-24T02:23:31;99476.66;;;7.74;100.00
48077;BME280;33854;57.708;12.008;2023-04-24T02:25:56;99466.25;;;7.74;100.00
48077;BME280;33854;57.708;12.008;2023-04-24T02:28:22;99473.19;;;7.74;100.00
48077;BME280;33854;57.708;12.008;2023-04-24T02:30:47;99465.41;;;7.74;100.00
48077;BME280;33854;57.708;12.008;2023-04-24T02:33:12;99465.41;;;7.74;100.00
48077;BME280;33854;57.708;12.008;2023-04-24T02:35:38;99465.56;;;7.71;100.00
48077;BME280;33854;57.708;12.008;2023-04-24T02:38:03;99481.00;;;7.74;100.00
48077;BME280;33854;57.708;12.008;2023-04-24T02:40:29;99487.09;;;7.73;100.00
48077;BME280;33854;57.708;12.008;2023-04-24T02:42:54;99489.53;;;7.76;100.00
48077;BME280;33854;57.708;12.008;2023-04-24T02:45:20;99481.75;;;7.76;100.00
48077;BME280;33854;57.708;12.008;2023-04-24T02:47:45;99473.78;;;7.79;100.00
48077;BME280;33854;57.708;12.008;2023-04-24T02:50:10;99467.69;;;7.80;100.00
48077;BME280;33854;57.708;12.008;2023-04-24T02:52:36;99472.94;;;7.78;100.00
48077;BME280;33854;57.708;12.008;2023-04-24T02:55:01;99466.00;;;7.79;100.00
48077;BME280;33854;57.708;12.008;2023-04-24T02:57:26;99463.66;;;7.74;100.00
48077;BME280;33854;57.708;12.008;2023-04-24T02:59:52;99460.22;;;7.74;100.00
48077;BME280;33854;57.708;12.008;2023-04-24T03:02:17;99460.44;;;7.69;100.00
48077;BME280;33854;57.708;12.008;2023-04-24T03:04:42;99460.44;;;7.69;100.00
48077;BME280;33854;57.708;12.008;2023-04-24T03:07:10;99462.31;;;7.67;100.00
48077;BME280;33854;57.708;12.008;2023-04-24T03:09:35;99455.63;;;7.63;100.00
48077;BME280;33854;57.708;12.008;2023-04-24T03:12:01;99448.75;;;7.62;100.00
48077;BME280;33854;57.708;12.008;2023-04-24T03:14:26;99448.00;;;7.60;100.00
48077;BME280;33854;57.708;12.008;2023-04-24T03:16:51;99453.19;;;7.60;100.00
48077;BME280;33854;57.708;12.008;2023-04-24T03:19:17;99441.94;;;7.60;100.00
48077;BME280;33854;57.708;12.008;2023-04-24T03:21:42;99441.94;;;7.60;100.00
48077;BME280;33854;57.708;12.008;2023-04-24T03:24:07;99441.19;;;7.58;100.00
48077;BME280;33854;57.708;12.008;2023-04-24T03:26:33;99437.59;;;7.60;100.00
48077;BME280;33854;57.708;12.008;2023-04-24T03:28:58;99430.63;;;7.61;100.00
48077;BME280;33854;57.708;12.008;2023-04-24T03:31:24;99435.81;;;7.61;100.00
48077;BME280;33854;57.708;12.008;2023-04-24T03:33:49;99439.25;;;7.61;100.00
48077;BME280;33854;57.708;12.008;2023-04-24T03:36:14;99440.19;;;7.60;100.00
48077;BME280;33854;57.708;12.008;2023-04-24T03:38:40;99429.81;;;7.60;100.00
48077;BME280;33854;57.708;12.008;2023-04-24T03:41:05;99423.00;;;7.58;100.00
48077;BME280;33854;57.708;12.008;2023-04-24T03:43:30;99416.22;;;7.55;100.00
48077;BME280;33854;57.708;12.008;2023-04-24T03:45:58;99423.44;;;7.50;100.00
48077;BME280;33854;57.708;12.008;2023-04-24T03:48:23;99413.03;;;7.50;100.00
48077;BME280;33854;57.708;12.008;2023-04-24T03:50:48;99410.72;;;7.45;100.00
48077;BME280;33854;57.708;12.008;2023-04-24T03:53:14;99414.91;;;7.48;100.00
48077;BME280;33854;57.708;12.008;2023-04-24T03:55:40;99408.59;;;7.52;100.00
48077;BME280;33854;57.708;12.008;2023-04-24T03:58:05;99405.19;;;7.52;100.00
48077;BME280;33854;57.708;12.008;2023-04-24T04:00:30;99410.13;;;7.56;100.00
48077;BME280;33854;57.708;12.008;2023-04-24T04:02:57;99409.97;;;7.59;100.00
48077;BME280;33854;57.708;12.008;2023-04-24T04:05:22;99414.88;;;7.64;100.00
48077;BME280;33854;57.708;12.008;2023-04-24T04:07:47;99413.88;;;7.66;100.00
48077;BME280;33854;57.708;12.008;2023-04-24T04:10:13;99418.84;;;7.71;100.00
48077;BME280;33854;57.708;12.008;2023-04-24T04:12:38;99412.56;;;7.75;100.00
48077;BME280;33854;57.708;12.008;2023-04-24T04:15:03;99426.97;;;7.80;100.00
48077;BME280;33854;57.708;12.008;2023-04-24T04:17:31;99423.34;;;7.83;100.00
48077;BME280;33854;57.708;12.008;2023-04-24T04:19:56;99426.59;;;7.86;100.00
48077;BME280;33854;57.708;12.008;2023-04-24T04:22:22;99429.03;;;7.89;100.00
48077;BME280;33854;57.708;12.008;2023-04-24T04:24:47;99429.13;;;7.88;100.00
48077;BME280;33854;57.708;12.008;2023-04-24T04:27:13;99414.22;;;7.91;100.00
48077;BME280;33854;57.708;12.008;2023-04-24T04:29:38;99408.25;;;7.89;100.00
48077;BME280;33854;57.708;12.008;2023-04-24T04:32:05;99411.53;;;7.93;100.00
48077;BME280;33854;57.708;12.008;2023-04-24T04:34:31;99403.50;;;7.97;100.00
48077;BME280;33854;57.708;12.008;2023-04-24T04:36:56;99418.91;;;8.00;100.00
48077;BME280;33854;57.708;12.008;2023-04-24T04:39:24;99423.09;;;8.03;100.00
48077;BME280;33854;57.708;12.008;2023-04-24T04:41:49;99425.41;;;8.08;100.00
48077;BME280;33854;57.708;12.008;2023-04-24T04:44:15;99431.34;;;8.10;100.00
48077;BME280;33854;57.708;12.008;2023-04-24T04:46:40;99446.03;;;8.11;100.00
48077;BME280;33854;57.708;12.008;2023-04-24T04:49:06;99447.63;;;8.13;100.00
48077;BME280;33854;57.708;12.008;2023-04-24T04:51:33;99435.28;;;8.17;100.00
48077;BME280;33854;57.708;12.008;2023-04-24T04:53:58;99439.47;;;8.19;100.00
48077;BME280;33854;57.708;12.008;2023-04-24T04:56:24;99433.25;;;8.22;100.00
48077;BME280;33854;57.708;12.008;2023-04-24T04:58:49;99443.66;;;8.22;100.00
48077;BME280;33854;57.708;12.008;2023-04-24T05:01:15;99439.31;;;8.22;100.00
48077;BME280;33854;57.708;12.008;2023-04-24T05:03:40;99446.25;;;8.22;100.00
48077;BME280;33854;57.708;12.008;2023-04-24T05:06:06;99447.84;;;8.24;100.00
48077;BME280;33854;57.708;12.008;2023-04-24T05:08:31;99448.84;;;8.22;100.00
48077;BME280;33854;57.708;12.008;2023-04-24T05:10:57;99438.28;;;8.25;100.00
48077;BME280;33854;57.708;12.008;2023-04-24T05:13:22;99436.59;;;8.24;100.00
48077;BME280;33854;57.708;12.008;2023-04-24T05:15:47;99433.84;;;8.27;100.00
48077;BME280;33854;57.708;12.008;2023-04-24T05:18:12;99437.97;;;8.31;100.00
48077;BME280;33854;57.708;12.008;2023-04-24T05:20:38;99436.44;;;8.27;100.00
48077;BME280;33854;57.708;12.008;2023-04-24T05:23:03;99441.31;;;8.33;100.00
48077;BME280;33854;57.708;12.008;2023-04-24T05:25:28;99440.13;;;8.38;100.00
48077;BME280;33854;57.708;12.008;2023-04-24T05:27:54;99430.56;;;8.39;100.00
48077;BME280;33854;57.708;12.008;2023-04-24T05:30:19;99440.06;;;8.40;100.00
48077;BME280;33854;57.708;12.008;2023-04-24T05:32:45;99436.03;;;8.34;100.00
48077;BME280;33854;57.708;12.008;2023-04-24T05:35:11;99448.59;;;8.42;100.00
48077;BME280;33854;57.708;12.008;2023-04-24T05:37:36;99446.00;;;8.42;100.00
48077;BME280;33854;57.708;12.008;2023-04-24T05:40:01;99447.19;;;8.36;100.00
48077;BME280;33854;57.708;12.008;2023-04-24T05:42:27;99448.94;;;8.36;100.00
48077;BME280;33854;57.708;12.008;2023-04-24T05:44:52;99451.38;;;8.39;100.00
48077;BME280;33854;57.708;12.008;2023-04-24T05:47:19;99455.72;;;8.38;100.00
48077;BME280;33854;57.708;12.008;2023-04-24T05:49:46;99454.53;;;8.44;100.00
48077;BME280;33854;57.708;12.008;2023-04-24T05:52:11;99452.34;;;8.52;100.00
48077;BME280;33854;57.708;12.008;2023-04-24T05:54:37;99446.38;;;8.50;100.00
48077;BME280;33854;57.708;12.008;2023-04-24T05:57:02;99452.53;;;8.49;100.00
48077;BME280;33854;57.708;12.008;2023-04-24T05:59:32;99461.25;;;8.48;100.00
48077;BME280;33854;57.708;12.008;2023-04-24T06:01:57;99457.06;;;8.45;100.00
48077;BME280;33854;57.708;12.008;2023-04-24T06:04:23;99459.97;;;8.55;100.00
48077;BME280;33854;57.708;12.008;2023-04-24T06:06:48;99468.69;;;8.54;100.00
48077;BME280;33854;57.708;12.008;2023-04-24T06:09:16;99467.78;;;8.55;100.00
48077;BME280;33854;57.708;12.008;2023-04-24T06:11:41;99461.09;;;8.65;100.00
48077;BME280;33854;57.708;12.008;2023-04-24T06:14:07;99457.66;;;8.65;100.00
48077;BME280;33854;57.708;12.008;2023-04-24T06:16:32;99466.41;;;8.64;100.00
48077;BME280;33854;57.708;12.008;2023-04-24T06:18:58;99454.47;;;8.75;100.00
48077;BME280;33854;57.708;12.008;2023-04-24T06:21:23;99457.13;;;8.74;100.00
48077;BME280;33854;57.708;12.008;2023-04-24T06:23:48;99457.25;;;8.86;100.00
48077;BME280;33854;57.708;12.008;2023-04-24T06:26:14;99460.59;;;8.88;100.00
48077;BME280;33854;57.708;12.008;2023-04-24T06:28:40;99463.09;;;8.90;100.00
48077;BME280;33854;57.708;12.008;2023-04-24T06:31:05;99456.91;;;8.92;100.00
48077;BME280;33854;57.708;12.008;2023-04-24T06:33:30;99464.91;;;9.03;100.00
48077;BME280;33854;57.708;12.008;2023-04-24T06:35:56;99462.69;;;9.11;100.00
48077;BME280;33854;57.708;12.008;2023-04-24T06:38:21;99468.53;;;9.15;100.00
48077;BME280;33854;57.708;12.008;2023-04-24T06:40:46;99470.84;;;9.20;100.00
48077;BME280;33854;57.708;12.008;2023-04-24T06:43:12;99472.81;;;9.30;100.00
48077;BME280;33854;57.708;12.008;2023-04-24T06:45:38;99482.78;;;9.38;100.00
48077;BME280;33854;57.708;12.008;2023-04-24T06:48:04;99489.84;;;9.50;100.00
48077;BME280;33854;57.708;12.008;2023-04-24T06:50:29;99489.25;;;9.59;100.00
48077;BME280;33854;57.708;12.008;2023-04-24T06:52:54;99480.00;;;9.82;100.00
48077;BME280;33854;57.708;12.008;2023-04-24T06:55:20;99492.13;;;9.83;100.00
48077;BME280;33854;57.708;12.008;2023-04-24T06:57:45;99496.94;;;9.89;100.00
48077;BME280;33854;57.708;12.008;2023-04-24T07:00:11;99507.38;;;9.89;100.00
48077;BME280;33854;57.708;12.008;2023-04-24T07:02:36;99505.22;;;9.95;100.00
48077;BME280;33854;57.708;12.008;2023-04-24T07:05:02;99505.50;;;9.91;100.00
48077;BME280;33854;57.708;12.008;2023-04-24T07:07:28;99513.81;;;9.83;100.00
48077;BME280;33854;57.708;12.008;2023-04-24T07:09:53;99517.81;;;9.74;100.00
48077;BME280;33854;57.708;12.008;2023-04-24T07:12:19;99521.34;;;9.73;100.00
48077;BME280;33854;57.708;12.008;2023-04-24T07:14:45;99520.91;;;9.67;100.00
48077;BME280;33854;57.708;12.008;2023-04-24T07:17:11;99507.97;;;9.65;100.00
48077;BME280;33854;57.708;12.008;2023-04-24T07:19:38;99511.47;;;9.64;100.00
48077;BME280;33854;57.708;12.008;2023-04-24T07:22:03;99514.09;;;9.50;100.00
48077;BME280;33854;57.708;12.008;2023-04-24T07:24:28;99506.94;;;9.54;100.00
48077;BME280;33854;57.708;12.008;2023-04-24T07:26:54;99509.19;;;9.46;100.00
48077;BME280;33854;57.708;12.008;2023-04-24T07:29:20;99496.63;;;9.38;100.00
48077;BME280;33854;57.708;12.008;2023-04-24T07:31:46;99491.97;;;9.29;100.00
48077;BME280;33854;57.708;12.008;2023-04-24T07:34:11;99490.94;;;9.18;100.00
48077;BME280;33854;57.708;12.008;2023-04-24T07:36:36;99497.25;;;9.13;100.00
48077;BME280;33854;57.708;12.008;2023-04-24T07:39:03;99487.88;;;9.11;100.00
48077;BME280;33854;57.708;12.008;2023-04-24T07:41:28;99483.31;;;9.00;100.00
48077;BME280;33854;57.708;12.008;2023-04-24T07:43:54;99489.53;;;8.98;100.00
48077;BME280;33854;57.708;12.008;2023-04-24T07:46:19;99490.63;;;8.94;100.00
48077;BME280;33854;57.708;12.008;2023-04-24T07:48:45;99490.72;;;8.92;100.00
48077;BME280;33854;57.708;12.008;2023-04-24T07:51:12;99484.56;;;8.93;100.00
48077;BME280;33854;57.708;12.008;2023-04-24T07:53:38;99497.19;;;8.85;100.00
48077;BME280;33854;57.708;12.008;2023-04-24T07:56:04;99487.25;;;8.78;100.00
48077;BME280;33854;57.708;12.008;2023-04-24T07:58:29;99470.50;;;8.68;100.00
48077;BME280;33854;57.708;12.008;2023-04-24T08:00:54;99467.22;;;8.64;100.00
48077;BME280;33854;57.708;12.008;2023-04-24T08:03:20;99448.28;;;8.62;100.00
48077;BME280;33854;57.708;12.008;2023-04-24T08:05:45;99444.72;;;8.49;100.00
48077;BME280;33854;57.708;12.008;2023-04-24T08:08:11;99433.00;;;8.42;100.00
48077;BME280;33854;57.708;12.008;2023-04-24T08:10:36;99404.31;;;8.43;100.00
48077;BME280;33854;57.708;12.008;2023-04-24T08:13:01;99383.78;;;8.39;100.00
48077;BME280;33854;57.708;12.008;2023-04-24T08:15:27;99384.34;;;8.44;100.00
48077;BME280;33854;57.708;12.008;2023-04-24T08:17:53;99370.44;;;8.45;100.00
48077;BME280;33854;57.708;12.008;2023-04-24T08:20:18;99371.34;;;8.44;100.00
48077;BME280;33854;57.708;12.008;2023-04-24T08:22:43;99366.41;;;8.39;100.00
48077;BME280;33854;57.708;12.008;2023-04-24T08:25:10;99355.47;;;8.34;100.00
48077;BME280;33854;57.708;12.008;2023-04-24T08:27:35;99344.97;;;8.36;100.00
48077;BME280;33854;57.708;12.008;2023-04-24T08:30:02;99349.97;;;8.39;100.00
48077;BME280;33854;57.708;12.008;2023-04-24T08:32:27;99345.63;;;8.24;100.00
48077;BME280;33854;57.708;12.008;2023-04-24T08:34:54;99328.44;;;8.37;100.00
48077;BME280;33854;57.708;12.008;2023-04-24T08:37:21;99324.00;;;8.39;100.00
48077;BME280;33854;57.708;12.008;2023-04-24T08:39:46;99325.19;;;8.47;100.00
48077;BME280;33854;57.708;12.008;2023-04-24T08:42:11;99322.44;;;8.50;100.00
48077;BME280;33854;57.708;12.008;2023-04-24T08:44:38;99323.28;;;8.65;100.00
48077;BME280;33854;57.708;12.008;2023-04-24T08:47:03;99322.25;;;8.68;100.00
48077;BME280;33854;57.708;12.008;2023-04-24T08:49:29;99339.06;;;8.62;100.00
48077;BME280;33854;57.708;12.008;2023-04-24T08:51:55;99333.84;;;8.62;100.00
48077;BME280;33854;57.708;12.008;2023-04-24T08:54:20;99341.59;;;8.64;100.00
48077;BME280;33854;57.708;12.008;2023-04-24T08:56:45;99339.97;;;8.61;100.00
48077;BME280;33854;57.708;12.008;2023-04-24T08:59:13;99347.97;;;8.58;100.00
48077;BME280;33854;57.708;12.008;2023-04-24T09:01:39;99364.00;;;8.36;100.00
48077;BME280;33854;57.708;12.008;2023-04-24T09:04:05;99370.13;;;8.35;100.00
48077;BME280;33854;57.708;12.008;2023-04-24T09:06:31;99347.09;;;8.29;100.00
48077;BME280;33854;57.708;12.008;2023-04-24T09:08:58;99359.47;;;8.24;100.00
48077;BME280;33854;57.708;12.008;2023-04-24T09:11:25;99360.84;;;8.16;100.00
48077;BME280;33854;57.708;12.008;2023-04-24T09:13:51;99356.50;;;8.16;100.00
48077;BME280;33854;57.708;12.008;2023-04-24T09:16:17;99360.25;;;8.26;100.00
48077;BME280;33854;57.708;12.008;2023-04-24T09:18:43;99351.09;;;8.35;100.00
48077;BME280;33854;57.708;12.008;2023-04-24T09:21:08;99349.72;;;8.43;100.00
48077;BME280;33854;57.708;12.008;2023-04-24T09:23:34;99346.75;;;8.49;100.00
48077;BME280;33854;57.708;12.008;2023-04-24T09:26:00;99353.44;;;8.39;100.00
48077;BME280;33854;57.708;12.008;2023-04-24T09:28:35;99347.97;;;8.58;100.00
48077;BME280;33854;57.708;12.008;2023-04-24T09:31:14;99354.31;;;8.68;100.00
48077;BME280;33854;57.708;12.008;2023-04-24T09:33:42;99357.81;;;8.67;100.00
48077;BME280;33854;57.708;12.008;2023-04-24T09:36:18;99378.00;;;8.64;100.00
48077;BME280;33854;57.708;12.008;2023-04-24T09:38:43;99376.78;;;8.69;100.00
48077;BME280;33854;57.708;12.008;2023-04-24T09:41:08;99373.81;;;8.75;100.00
48077;BME280;33854;57.708;12.008;2023-04-24T09:43:38;99367.59;;;8.78;100.00
48077;BME280;33854;57.708;12.008;2023-04-24T09:46:07;99368.34;;;8.94;100.00
48077;BME280;33854;57.708;12.008;2023-04-24T09:48:34;99380.31;;;8.96;100.00
48077;BME280;33854;57.708;12.008;2023-04-24T09:51:03;99387.25;;;9.24;100.00
48077;BME280;33854;57.708;12.008;2023-04-24T09:53:30;99389.00;;;9.52;100.00
48077;BME280;33854;57.708;12.008;2023-04-24T09:55:56;99384.69;;;9.92;100.00
48077;BME280;33854;57.708;12.008;2023-04-24T09:58:25;99392.13;;;9.98;100.00
48077;BME280;33854;57.708;12.008;2023-04-24T10:00:53;99388.56;;;9.99;100.00
48077;BME280;33854;57.708;12.008;2023-04-24T10:03:18;99397.59;;;9.81;100.00
48077;BME280;33854;57.708;12.008;2023-04-24T10:05:44;99389.25;;;9.61;100.00
48077;BME280;33854;57.708;12.008;2023-04-24T10:08:11;99382.97;;;9.51;100.00
48077;BME280;33854;57.708;12.008;2023-04-24T10:10:41;99374.31;;;9.51;100.00
48077;BME280;33854;57.708;12.008;2023-04-24T10:13:10;99378.22;;;9.58;100.00
48077;BME280;33854;57.708;12.008;2023-04-24T10:15:36;99375.09;;;9.65;100.00
48077;BME280;33854;57.708;12.008;2023-04-24T10:18:01;99371.84;;;9.62;100.00
48077;BME280;33854;57.708;12.008;2023-04-24T10:20:29;99376.03;;;9.64;100.00
48077;BME280;33854;57.708;12.008;2023-04-24T10:22:56;99366.56;;;9.63;100.00
48077;BME280;33854;57.708;12.008;2023-04-24T10:25:22;99358.50;;;9.81;100.00
48077;BME280;33854;57.708;12.008;2023-04-24T10:27:48;99353.19;;;9.82;100.00
48077;BME280;33854;57.708;12.008;2023-04-24T10:30:14;99349.28;;;10.02;100.00
48077;BME280;33854;57.708;12.008;2023-04-24T10:32:39;99343.66;;;9.95;100.00
48077;BME280;33854;57.708;12.008;2023-04-24T10:35:08;99331.47;;;10.08;100.00
48077;BME280;33854;57.708;12.008;2023-04-24T10:37:39;99323.81;;;10.19;100.00
48077;BME280;33854;57.708;12.008;2023-04-24T10:40:06;99332.72;;;10.55;100.00
48077;BME280;33854;57.708;12.008;2023-04-24T10:42:33;99331.34;;;10.87;100.00
48077;BME280;33854;57.708;12.008;2023-04-24T10:44:58;99338.22;;;11.13;100.00
48077;BME280;33854;57.708;12.008;2023-04-24T10:47:24;99348.72;;;11.61;100.00
48077;BME280;33854;57.708;12.008;2023-04-24T10:49:50;99350.56;;;11.71;100.00
48077;BME280;33854;57.708;12.008;2023-04-24T10:52:15;99346.66;;;12.24;100.00
48077;BME280;33854;57.708;12.008;2023-04-24T10:54:45;99339.84;;;12.79;100.00
48077;BME280;33854;57.708;12.008;2023-04-24T10:59:49;99342.00;;;12.74;100.00
48077;BME280;33854;57.708;12.008;2023-04-24T11:02:15;99342.22;;;12.71;100.00
48077;BME280;33854;57.708;12.008;2023-04-24T11:04:41;99343.69;;;12.40;100.00
48077;BME280;33854;57.708;12.008;2023-04-24T11:07:09;99343.88;;;12.61;100.00
48077;BME280;33854;57.708;12.008;2023-04-24T11:09:34;99331.88;;;12.80;100.00
48077;BME280;33854;57.708;12.008;2023-04-24T11:12:08;99337.22;;;12.68;100.00
48077;BME280;33854;57.708;12.008;2023-04-24T11:17:29;99328.84;;;12.51;100.00
48077;BME280;33854;57.708;12.008;2023-04-24T11:20:06;99333.63;;;12.46;100.00
48077;BME280;33854;57.708;12.008;2023-04-24T11:22:32;99334.59;;;12.56;100.00
48077;BME280;33854;57.708;12.008;2023-04-24T11:24:59;99317.50;;;13.19;100.00
48077;BME280;33854;57.708;12.008;2023-04-24T11:27:27;99327.75;;;13.22;100.00
48077;BME280;33854;57.708;12.008;2023-04-24T11:37:23;99319.66;;;13.68;100.00
48077;BME280;33854;57.708;12.008;2023-04-24T11:39:53;99323.44;;;13.21;100.00
48077;BME280;33854;57.708;12.008;2023-04-24T11:42:18;99329.31;;;13.13;100.00
48077;BME280;33854;57.708;12.008;2023-04-24T11:44:44;99323.22;;;13.13;100.00
48077;BME280;33854;57.708;12.008;2023-04-24T11:47:12;99326.41;;;13.05;100.00
48077;BME280;33854;57.708;12.008;2023-04-24T11:49:37;99317.16;;;13.12;100.00
48077;BME280;33854;57.708;12.008;2023-04-24T11:52:03;99323.09;;;13.14;100.00
48077;BME280;33854;57.708;12.008;2023-04-24T11:54:29;99320.34;;;13.27;100.00
48077;BME280;33854;57.708;12.008;2023-04-24T11:56:55;99318.16;;;13.54;100.00
48077;BME280;33854;57.708;12.008;2023-04-24T11:59:21;99284.09;;;13.43;100.00
48077;BME280;33854;57.708;12.008;2023-04-24T12:01:47;99321.13;;;13.50;100.00
48077;BME280;33854;57.708;12.008;2023-04-24T12:04:12;99314.13;;;13.39;100.00
48077;BME280;33854;57.708;12.008;2023-04-24T12:06:38;99307.69;;;13.43;100.00
48077;BME280;33854;57.708;12.008;2023-04-24T12:09:03;99311.00;;;13.56;100.00
48077;BME280;33854;57.708;12.008;2023-04-24T12:11:29;99307.81;;;13.42;100.00
48077;BME280;33854;57.708;12.008;2023-04-24T12:15:20;99314.03;;;13.19;100.00
48077;BME280;33854;57.708;12.008;2023-04-24T12:17:45;99311.31;;;13.31;100.00
48077;BME280;33854;57.708;12.008;2023-04-24T12:20:12;99314.72;;;13.43;100.00
48077;BME280;33854;57.708;12.008;2023-04-24T12:22:51;99306.44;;;13.58;100.00
48077;BME280;33854;57.708;12.008;2023-04-24T12:25:21;99312.22;;;13.41;100.00
48077;BME280;33854;57.708;12.008;2023-04-24T12:27:55;99297.19;;;13.43;100.00
48077;BME280;33854;57.708;12.008;2023-04-24T12:30:43;99308.06;;;13.39;100.00
48077;BME280;33854;57.708;12.008;2023-04-24T12:33:17;99308.22;;;13.15;100.00
48077;BME280;33854;57.708;12.008;2023-04-24T12:35:43;99304.41;;;12.97;100.00
48077;BME280;33854;57.708;12.008;2023-04-24T12:38:11;99310.69;;;12.72;100.00
48077;BME280;33854;57.708;12.008;2023-04-24T12:40:38;99299.88;;;12.77;100.00
48077;BME280;33854;57.708;12.008;2023-04-24T12:43:16;99302.38;;;12.78;100.00
48077;BME280;33854;57.708;12.008;2023-04-24T12:45:42;99296.53;;;12.86;100.00
48077;BME280;33854;57.708;12.008;2023-04-24T12:48:07;99300.47;;;13.02;100.00
48077;BME280;33854;57.708;12.008;2023-04-24T12:50:33;99295.94;;;13.04;100.00
48077;BME280;33854;57.708;12.008;2023-04-24T12:52:59;99295.47;;;12.99;100.00
48077;BME280;33854;57.708;12.008;2023-04-24T12:55:25;99294.28;;;12.92;100.00